Timeline UpdatesTrip UpdatesNews PostsPvt PostsTravel TipsAdmin PostsConv PostsFollowed PostsChat RequestsBlog PostsPNR Posts

Disclaimer
Search
 
 
Mon Sep 15, 2014 09:34:47 ISTHomeTrainsΣChainsAtlasPNRForumGalleryNewsFAQTripsMembersLoginFeedback
No Recent News for this Train
Other Trains in the News **new
Latest...
running with SX1 (duration not known)....#1181763
Fri Aug 08, 2014 (06:37PM)
⇐ Return Journey: Train# 19166

19165/Sabarmati Express

Time-Table HAS CHANGED.
Sep 04 (12:11AM)
Change Departure Station:
Change Arrival Station:
Post a Train Travel TipPost a Train Travel Tip **new
Post a Comment/Question/Picture/VideoPost a Comment/Question/Picture/Video
Pantry/Catering
✕ NO Pantry Car
✕ NO Catering
Loco/Rake Reversals
BRC/Vadodara Junction (7); BINA/Bina Junction (5); SPJ/Samastipur Junction (9); SHG/Shahganj Junction (4);
RSA - Rake Sharing
19165/19166/19167/19168 has RSA
Rake/Coach Composition
LOCO-SLR-GS-GS-A1-B1-B2-S1-S2-S3-S4-S5-S6-S7-S8-S9-S10-S11-S12-S13-SX1-GS-GS-SLR
Loco
ADI-RTM :BRC WAP4E RTM-DBG :RTM WDM3A
News    PNR    Forum    Time-Table    Availability    Fare Chart    Map    Arr/Dep History    Trips    Gallery    ΣChains    X/O    Timeline    
Travel Time: 1h 55m    4 halts    Distance: 100 km    Avg Speed: 52 km/hr
Type: Mail/Express
Zone: WR/Western
Departs @ 20:50 (Avg on time)
Platform# 2
S  W F 
Ahmedabad Junction/ADI 
Arrives @ 22:45 (Avg 18m late)
Platform# 7
S  W F 
Vadodara Junction/BRC 

4 halts. 21 intermediate Stations between Ahmedabad Junction and Vadodara Junction

Show ALL intermediate Stations  Show Old Time-Table

#CodeStation NameX/OArrivesAvgDepartsAvgHaltPFDay#KmSpeedElevZoneAddress
1ADI»Ahmedabad Junction (12)»  -20:50+0210.02751mWRAhmedabad, Gujarat
2MANManinagar (2)X  20:57+020:59+02m213.26250mWRAhmadabad, Gujarat
3MHDMahemdavad Kheda Road (4)X  21:23+1221:25+122m2128.07537mWRMahemdavad, Gujarat
4NDNadiad Junction (4)  21:39+1221:41+122m1145.66237mWRNadiad, Gujarat
5ANNDAnand Junction (6)  21:59+1322:01+132m1164.14944mWRAnand, Gujarat
6BRC•Vadodara Junction (7)•XO22:45+1823:10+1725m7199.85336mWRVadodara 390005, Gujarat
7GDAGodhra Junction (3)  00:33+1100:35+112m--2173.777122mWRGodhra, Gujarat
8DHDDahod (3)X  01:30 01:32+4001:32 01:34+402m--2246.890313mWRDahod, Gujarat
9MGNMeghnagar (3)X  01:54 01:56+5101:56 01:58+512m--2279.955317mWRJhabua, Madhya Pradesh
10RTMRatlam Junction (7)X  03:25+4003:40+4615m52360.269495mWRRatlam, Madhya Pradesh
11KUHKhachrod (2)  04:02 04:04+1:0204:04 04:06+1:022m--2387.934497mWRUjjain, Madhya Pradesh
12NADNagda Junction (4)  04:30+4904:35+515m--2401.761468mWRNagda, Madhya Pradesh
13UJNUjjain Junction (8)X  05:30+4405:50+3420m--2457.374492mWRUjjain 456001, Madhya Pradesh
14TANTarana RoadO  06:15 06:17+4106:17 06:18+362 1m--2490.716498mWRMaksi, Madhya Pradesh
15MKCMaksi Junction (3)  06:53+1706:55+192m--2500.376513mWRMakshi, Madhya Pradesh
16SFYShajapurX  07:19 07:17+3107:21 07:19+362m--2528.150450mWCRShajapur, Madhya Pradesh
17SFWSarangpur  07:50 07:51+3207:52 07:53+322m--2554.665422mWCRSarangpur, Madhya Pradesh
18PFRPachor Road  08:23+3408:25+372m--2587.363419mWCRPachore, Madhya Pradesh
19BRRGBiyavra RajgarhX  08:53+3808:55+382m--2616.544423mWCRBiaora, Madhya Pradesh
20CBKChachaura Binaganj (1)  09:38 09:36+3409:40 09:38+422m12646.972435mWCRGuna, Madhya Pradesh
21KHRJKumbhraj (1)  10:08 09:57+4010:10 09:59+452m12669.672401mWCRManpura, Madhya Pradesh
22VJPVijay PurX  10:18 10:15+5310:20 10:17+532m--2688.752420mWCRVijaipur, Madhya Pradesh
23RTARuthiyai Junction (2)  10:35 10:23+4810:40 10:28+485m--2693.926414mWCRRuthiyai, Madhya Pradesh
24GUNAGuna Junction (3)  11:40 11:15+2211:55 11:25+2515 10m22714.258477mWCRJn Point Indore/Gwalior/Bina/Kota, Madhya Pradesh
25ASKNAshok Nagar (2)X  12:38 12:11+2412:40 12:13+252m--2758.337502mWCRAshoknagar, Madhya Pradesh
26PIAPipraigaon (3)X  13:02 12:56+3313:04 12:58+332m12784.748451mWCRAshoknagar, Madhya Pradesh
27MNVMungaoli (2)  13:29 13:22+3113:31 13:24+312m--2804.026403mWCRAshoknagar, Madhya Pradesh
28BINABina Junction (5)X14:20 14:30+1514:40+1620 10m42833.056414mWCRJn Pt - KATNI/GUNA/ BPL/JHS, Madhya Pradesh
29DUADhaura (3)X  15:17+2915:19+302m--2867.658407mNCRDhaura Tanda, Madhya Pradesh
30JLNJakhalaun (3)  15:30 15:31+3015:32 15:33+302m--2879.259394mNCRLalitpur(05176-272220), Uttar Pradesh
31LARLalitpur (3)X  15:45 15:50+3315:47 15:55+402 5m32896.092373mNCRLalitpur, Uttar Pradesh
32TBTTalbahat (4)  16:13 16:21+4916:15 16:23+492m32935.871314mNCRKhaniyadhana Station Rd, Madhya Pradesh
33BABBabina (3)  16:36 16:44+4816:38 16:46+502m22960.839285mNCRBabina, Uttar Pradesh
34JHSJhansi Junction (7)  17:15 17:25+3717:30 17:40+4515m--2986.3-259mNCRJhansi, Uttar Pradesh
35CGNChirgaon  17:54 17:46+1:2217:56 17:48+1:232m--21018.064192mNCRChirgaon, Uttar Pradesh
36MOTHMoth  18:15 18:10+1:2518:17 18:12+1:272m--21041.579175mNCRJhansi, Uttar Pradesh
37AITAit Junction (2)  18:42 18:38+1:3418:44 18:40+1:352m121075.645154mNCROrai(05162-252206), Uttar Pradesh
38ORAIOrai (3)X  19:09 19:13+1:2319:11 19:15+1:272m321100.273139mNCROrai(05162-252206), Uttar Pradesh
39KPIKalpiX  19:38 19:42+1:4619:40 19:44+1:462m--21133.065114mNCRKalpi Orai(05162-252206), Uttar Pradesh
40PHNPokhrayan (2)X  19:58+1:4620:00+1:462m121148.118133mNCRPukhrayan, Uttar Pradesh
41BZMBhimsen (1)  22:28+1222:30+142m121192.421136mNCRKanpur, Uttar Pradesh
42CNBKanpur Central (10)X  23:10+923:20+1110m--21206.547128mNCRKANPUR-208 001, Uttar Pradesh
43ONUnnao Junction (5)X  23:41 23:42+2823:43 23:44+282m--21223.950129mNRUnnao, Uttar Pradesh
44LKOLucknow Charbagh NR (9)X  00:50+2001:05+2315m331278.540123mNR226004, Uttar Pradesh
45BBKBarabanki Junction (4)  01:48+3201:50+332m--31307.171122mNRPin-225001, Uttar Pradesh
46DYDDaryabad  02:22+4502:24+462m--31345.143116mNRFaizabad Rd, Uttar Pradesh
47RDLRudauli (2)  02:55 02:56+3802:57+382 1m--31368.234112mNRRudauli, Uttar Pradesh
48FDFaizabad Junction (5)  04:05+2304:10+315m--31406.325104mNRFaizabad, Uttar Pradesh
49AYAyodhya Junction (3)  04:25 04:26+3804:27+392 1m--31413.16898mNRAyodhya, Uttar Pradesh
50GGJGoshainGanj (3)X  04:54 04:55+4604:56+452 1m--31444.84498mNRGoshainganj, Uttar Pradesh
51ABPAkbarpur (2)  05:26+4005:28+422m--31467.06092mNRAkbarpur, Uttar Pradesh
52MLPRMalipur (2)  05:46 05:47+4505:48+452 1m--31486.12992mNRMalipur, Uttar Pradesh
53SHGShahganj Junction (4)06:30 06:40+3307:10+1640 30m--31511.16190mNRShahganj, Uttar Pradesh
54KRNDKhorason Road (2)  07:31+2707:33+272m--31532.24885mNERUttar Pradesh 276304 ?, Uttar Pradesh
55SMZSarai Mir (2)  07:44+2907:46+292m--31541.14687mNERTowa Ahirana, Uttar Pradesh
56AMHAzamgarh (2)  08:20+2408:25+255m131567.03081mNERAzamgarh, Uttar Pradesh
57MMAMuhammadabad (2)  09:08+2009:10+242m--31588.62980mNERMuhammadabad Marg, Uttar Pradesh
58MAUMau Junction (4)X  09:55+1810:10+1515m--31610.23675mNERMau., Uttar Pradesh
59IAAIndara Junction (3)  10:22 10:23+1610:24 10:25+162m--31618.15774mNERMau, Uttar Pradesh
60RSRRasra (2)X  10:53 10:55+2310:55 10:57+312m--31646.44170mNERRasra, Uttar Pradesh
61BUIBallia (3)  11:45+3311:50+335m--31679.16262mNERBallia, Uttar Pradesh
62SIPSuraimanpur  12:20 12:25+4512:22 12:27+452m--31715.53360mNERBallia, Uttar Pradesh
63CPRChhapra Junction (6)X  13:20+3513:40+1:0020m--31744.75458mNERDistt: Saran, Bihar
64SEESonpur Junction (4)X  14:55 14:40+1:4315:04 14:45+2:029 5m--31798.83356mECRSaran, Bihar
65HJPHajipur Junction (3)  15:17 14:55+1:5415:19 15:00+2:022 5m--31804.34355mECR06224-272230, Bihar
66MFPMuzaffarpur Junction (6)  16:12 16:15+2:3416:22 16:20+2:3410 5m131858.14557mECRMuzaffarpur, Bihar
67SPJSamastipur Junction (9)XO17:30+2:2817:58+2:2628m--31910.23255mECRSamastipur, Bihar
68LSILaheria Sarai (1)  18:58+2:3619:00+2:382m131942.72052mECRDarbhanga, Bihar
69DBGDarbhanga Junction (5)  19:15+2:22-131947.7-54mECRDarbhanga, Bihar
Scroll to Top
Scroll to Bottom